Time;durP1;ratioP1;P1;durP2;ratioP2;P2;SDS_P1;SDS_P2;PMS_P1;PMS_P2;Temp;Humidity;BMP_temperature;BMP_pressure;BME280_temperature;BME280_humidity;BME280_pressure;Samples;Min_cycle;Max_cycle;Signal;HPM_P1;HPM_P2
2021/03/24 00:00:31;;;;;;;36.25;15.80;;;7.60;88.80;;;;;;4974236;28;20047;-76
2021/03/24 00:02:57;;;;;;;32.70;13.85;;;7.50;88.60;;;;;;4967463;28;20109;-75
2021/03/24 00:05:29;;;;;;;33.67;14.43;;;7.50;88.70;;;;;;4975843;28;20034;-76
2021/03/24 00:07:56;;;;;;;27.75;14.07;;;7.50;88.80;;;;;;4975543;28;20118;-76
2021/03/24 00:10:24;;;;;;;33.80;13.30;;;7.50;88.70;;;;;;4990433;28;20038;-75
2021/03/24 00:12:50;;;;;;;33.22;14.77;;;7.50;88.80;;;;;;4974378;28;20043;-76
2021/03/24 00:15:17;;;;;;;31.05;14.27;;;7.40;89.00;;;;;;4975371;28;20137;-76
2021/03/24 00:17:43;;;;;;;37.63;14.98;;;7.40;89.00;;;;;;4990503;28;20089;-76
2021/03/24 00:20:11;;;;;;;31.13;14.38;;;7.40;89.10;;;;;;4974320;28;20042;-76
2021/03/24 00:22:37;;;;;;;37.63;14.68;;;7.40;88.80;;;;;;4990487;28;20399;-76
2021/03/24 00:25:04;;;;;;;29.45;13.82;;;7.40;88.80;;;;;;4990388;28;20035;-76
2021/03/24 00:27:30;;;;;;;34.42;14.45;;;7.40;88.30;;;;;;4990391;28;20035;-76
2021/03/24 00:29:56;;;;;;;30.95;14.20;;;7.40;88.20;;;;;;4990183;28;20039;-75
2021/03/24 00:32:22;;;;;;;28.85;13.98;;;7.40;88.50;;;;;;4974238;28;20043;-76
2021/03/24 00:34:48;;;;;;;33.88;14.75;;;7.30;88.30;;;;;;4990141;28;20073;-76
2021/03/24 00:37:14;;;;;;;28.88;14.02;;;7.30;88.10;;;;;;4990476;28;20081;-75
2021/03/24 00:39:40;;;;;;;31.67;14.15;;;7.30;88.30;;;;;;4989863;28;20581;-76
2021/03/24 00:42:06;;;;;;;29.38;14.18;;;7.20;88.30;;;;;;4975667;28;20050;-75
2021/03/24 00:44:32;;;;;;;35.13;14.15;;;7.20;88.20;;;;;;4974465;28;20073;-76
2021/03/24 00:46:58;;;;;;;32.33;14.27;;;7.20;88.10;;;;;;4975435;28;20038;-76
2021/03/24 00:49:25;;;;;;;30.20;14.43;;;7.20;87.90;;;;;;4990392;28;20057;-76
2021/03/24 00:51:51;;;;;;;34.05;15.18;;;7.20;88.10;;;;;;4975242;28;20050;-75
2021/03/24 00:54:17;;;;;;;34.47;14.20;;;7.10;88.20;;;;;;4990415;28;20041;-76
2021/03/24 00:56:43;;;;;;;26.33;14.40;;;7.10;88.10;;;;;;4994023;28;20049;-76
2021/03/24 00:59:09;;;;;;;27.80;13.32;;;7.20;88.00;;;;;;4979104;28;20035;-76
2021/03/24 01:01:35;;;;;;;33.42;13.75;;;7.10;88.00;;;;;;4979205;28;20130;-76
2021/03/24 01:04:01;;;;;;;32.25;13.30;;;7.10;87.80;;;;;;4977733;28;20503;-76
2021/03/24 01:06:27;;;;;;;28.50;13.77;;;7.10;87.70;;;;;;4994182;28;20038;-76
2021/03/24 01:08:56;;;;;;;31.60;13.45;;;7.10;87.70;;;;;;4978811;28;20403;-76
2021/03/24 01:11:22;;;;;;;30.67;13.68;;;7.10;87.80;;;;;;4994028;28;20043;-76
2021/03/24 01:13:48;;;;;;;27.90;13.95;;;7.20;87.90;;;;;;4979218;28;20050;-76
2021/03/24 01:16:14;;;;;;;31.25;13.90;;;7.20;87.30;;;;;;4993678;28;20038;-76
2021/03/24 01:18:40;;;;;;;28.27;13.65;;;7.30;87.10;;;;;;4994415;28;20035;-76
2021/03/24 01:21:06;;;;;;;27.52;13.70;;;7.20;87.20;;;;;;4993839;28;20042;-76
2021/03/24 01:23:31;;;;;;;33.00;15.07;;;7.00;88.30;;;;;;4993355;28;20046;-76
2021/03/24 01:25:57;;;;;;;32.58;15.10;;;6.90;88.90;;;;;;4993401;28;20038;-76
2021/03/24 01:28:27;;;;;;;36.70;13.55;;;6.90;89.10;;;;;;4992435;28;20114;-76
2021/03/24 01:30:57;;;;;;;29.00;14.02;;;6.80;89.20;;;;;;4992642;28;20479;-76
2021/03/24 01:33:24;;;;;;;31.92;14.18;;;6.80;89.00;;;;;;4993586;28;20037;-76
2021/03/24 01:35:50;;;;;;;37.38;15.68;;;6.70;89.10;;;;;;4993666;28;20038;-76
2021/03/24 01:38:16;;;;;;;29.70;13.93;;;6.70;89.30;;;;;;4993219;28;20045;-76
2021/03/24 01:40:48;;;;;;;30.35;14.32;;;6.70;89.20;;;;;;4976653;28;20500;-76
2021/03/24 01:43:28;;;;;;;27.75;15.50;;;6.80;89.20;;;;;;4993728;28;20542;-76
2021/03/24 01:46:19;;;;;;;29.40;13.65;;;6.70;89.30;;;;;;4992723;28;20456;-76
2021/03/24 01:48:46;;;;;;;27.15;13.73;;;6.70;89.30;;;;;;4977944;28;20066;-75
2021/03/24 01:51:12;;;;;;;31.00;14.55;;;6.60;89.50;;;;;;4976545;28;20567;-76
2021/03/24 01:53:39;;;;;;;28.60;14.40;;;6.60;89.60;;;;;;4977022;28;20129;-75
2021/03/24 01:56:07;;;;;;;28.80;13.95;;;6.60;89.50;;;;;;4992855;28;20039;-76
2021/03/24 01:58:34;;;;;;;31.33;14.35;;;6.60;89.60;;;;;;4992490;28;20062;-76
2021/03/24 02:01:00;;;;;;;32.75;14.77;;;6.60;89.70;;;;;;4976628;28;20031;-76
2021/03/24 02:03:27;;;;;;;35.75;15.32;;;6.60;89.50;;;;;;4992794;28;20491;-76
2021/03/24 02:05:55;;;;;;;29.92;15.07;;;6.70;88.70;;;;;;4977402;28;20096;-76
2021/03/24 02:08:33;;;;;;;29.75;15.07;;;6.90;87.30;;;;;;4977328;28;20035;-76
2021/03/24 02:11:17;;;;;;;32.72;15.75;;;6.90;86.60;;;;;;4992453;28;20134;-76
2021/03/24 02:13:52;;;;;;;27.65;14.98;;;6.90;86.50;;;;;;4976322;28;20043;-76
2021/03/24 02:16:41;;;;;;;30.30;14.82;;;6.80;87.70;;;;;;4977648;28;20043;-76
2021/03/24 02:19:36;;;;;;;35.65;15.88;;;6.70;88.50;;;;;;4977937;28;20121;-76
2021/03/24 02:22:04;;;;;;;31.42;15.20;;;6.70;88.10;;;;;;4977410;28;20488;-76
2021/03/24 02:24:39;;;;;;;33.30;15.05;;;6.70;87.40;;;;;;4992145;28;20097;-76
2021/03/24 02:27:11;;;;;;;33.67;15.07;;;6.80;86.40;;;;;;4976252;28;20057;-76
2021/03/24 02:29:41;;;;;;;32.47;15.55;;;6.80;86.40;;;;;;4992531;28;20046;-76
2021/03/24 02:32:12;;;;;;;38.65;16.38;;;6.80;86.40;;;;;;4992073;28;20042;-76
2021/03/24 02:34:39;;;;;;;33.00;16.35;;;6.80;86.20;;;;;;4992329;28;20062;-77
2021/03/24 02:37:07;;;;;;;27.10;15.40;;;6.80;86.30;;;;;;4991905;28;20039;-76
2021/03/24 02:39:33;;;;;;;34.97;16.45;;;6.80;86.20;;;;;;4975671;28;20133;-76
2021/03/24 02:42:02;;;;;;;31.42;15.52;;;6.80;86.60;;;;;;4975924;28;20066;-76
2021/03/24 02:44:29;;;;;;;31.42;15.43;;;6.80;86.50;;;;;;4992256;28;20030;-76
2021/03/24 02:46:56;;;;;;;30.80;15.45;;;6.70;86.40;;;;;;4992311;28;20039;-76
2021/03/24 02:49:25;;;;;;;28.40;15.65;;;6.70;86.60;;;;;;4991989;28;20046;-76
2021/03/24 02:51:51;;;;;;;26.92;15.75;;;6.70;86.50;;;;;;4992155;28;20031;-76
2021/03/24 02:54:21;;;;;;;35.05;15.60;;;6.70;86.40;;;;;;4977043;28;20129;-75
2021/03/24 02:56:48;;;;;;;29.02;15.55;;;6.80;86.20;;;;;;4992037;28;20468;-76
2021/03/24 02:59:16;;;;;;;29.90;16.15;;;6.70;86.10;;;;;;4977081;28;20046;-75
2021/03/24 03:01:47;;;;;;;33.97;16.05;;;6.60;86.40;;;;;;4975511;28;20053;-76
2021/03/24 03:04:23;;;;;;;26.85;15.55;;;6.60;87.00;;;;;;4977222;28;20043;-76
2021/03/24 03:06:53;;;;;;;28.85;15.35;;;6.60;87.00;;;;;;4975510;28;20042;-77
2021/03/24 03:09:48;;;;;;;27.83;14.82;;;6.50;87.20;;;;;;4975653;28;20042;-75
2021/03/24 03:12:30;;;;;;;28.37;16.33;;;6.50;86.80;;;;;;4991892;28;20090;-75
2021/03/24 03:15:05;;;;;;;31.83;16.10;;;6.50;86.90;;;;;;4975546;28;20066;-75
2021/03/24 03:17:43;;;;;;;30.17;15.45;;;6.40;87.70;;;;;;4976517;28;20039;-75
2021/03/24 03:20:17;;;;;;;30.55;16.33;;;6.40;87.90;;;;;;4976976;28;20046;-75
2021/03/24 03:22:44;;;;;;;;;;;6.20;88.30;;;;;;4992592;28;20034;-75
2021/03/24 03:25:17;;;;;;;33.22;15.65;;;6.20;88.50;;;;;;4976221;28;19997;-75
2021/03/24 03:27:44;;;;;;;30.48;17.10;;;6.20;88.60;;;;;;4975459;28;20030;-75
2021/03/24 03:30:14;;;;;;;35.55;17.10;;;6.20;88.60;;;;;;4991130;28;20050;-75
2021/03/24 03:32:43;;;;;;;35.35;17.02;;;6.20;88.50;;;;;;4992260;28;20058;-75
2021/03/24 03:35:18;;;;;;;32.67;16.25;;;6.10;88.20;;;;;;4991415;28;20097;-75
2021/03/24 03:37:45;;;;;;;29.38;16.88;;;6.10;88.10;;;;;;4991206;28;20034;-75
2021/03/24 03:40:17;;;;;;;31.98;16.63;;;6.10;88.20;;;;;;4974755;28;20511;-75
2021/03/24 03:42:43;;;;;;;33.65;16.80;;;6.10;88.40;;;;;;4991289;28;20097;-75
2021/03/24 03:45:11;;;;;;;32.92;17.25;;;6.10;88.30;;;;;;4974715;28;20039;-75
2021/03/24 03:47:40;;;;;;;34.63;17.20;;;6.00;88.50;;;;;;4991222;28;20037;-75
2021/03/24 03:50:08;;;;;;;30.75;16.70;;;6.10;88.50;;;;;;4991231;28;20480;-75
2021/03/24 03:52:59;;;;;;;34.50;17.15;;;6.00;88.80;;;;;;4991085;28;20045;-75
2021/03/24 03:55:30;;;;;;;34.70;18.00;;;6.00;88.90;;;;;;4974510;28;20129;-75
2021/03/24 03:58:02;;;;;;;35.85;17.58;;;5.90;88.90;;;;;;4990789;28;20038;-75
2021/03/24 04:00:35;;;;;;;30.70;16.67;;;5.90;89.30;;;;;;4976173;28;20043;-75
2021/03/24 04:03:17;;;;;;;31.63;16.67;;;5.90;89.50;;;;;;4991631;28;20550;-75
2021/03/24 04:05:53;;;;;;;31.65;17.70;;;5.90;89.60;;;;;;4990962;28;20357;-75
2021/03/24 04:08:27;;;;;;;30.15;16.85;;;5.90;89.90;;;;;;4990753;28;20038;-75
2021/03/24 04:10:56;;;;;;;36.17;17.60;;;5.90;89.80;;;;;;4975649;28;20045;-75
2021/03/24 04:13:29;;;;;;;36.42;17.23;;;5.90;90.00;;;;;;4991384;28;20066;-75
2021/03/24 04:15:57;;;;;;;33.70;16.83;;;5.80;90.00;;;;;;4976019;28;20073;-75
2021/03/24 04:18:46;;;;;;;35.08;17.73;;;5.90;90.30;;;;;;4990469;28;20031;-75
2021/03/24 04:21:12;;;;;;;32.80;18.60;;;5.80;90.10;;;;;;4990627;28;20046;-75
2021/03/24 04:23:44;;;;;;;40.90;17.63;;;5.80;90.50;;;;;;4990366;28;20122;-75
2021/03/24 04:26:16;;;;;;;37.00;19.23;;;5.80;90.50;;;;;;4976298;28;20041;-75
2021/03/24 04:28:47;;;;;;;38.35;19.60;;;5.80;90.80;;;;;;4991143;28;20066;-75
2021/03/24 04:31:16;;;;;;;39.17;20.15;;;5.80;91.10;;;;;;4994193;28;20542;-75
2021/03/24 04:33:42;;;;;;;43.08;20.58;;;5.80;91.40;;;;;;4994723;28;20550;-75
2021/03/24 04:36:38;;;;;;;35.10;18.92;;;5.80;91.40;;;;;;4978460;28;20078;-75
2021/03/24 04:39:17;;;;;;;39.63;19.63;;;5.90;91.50;;;;;;4979966;28;20074;-76
2021/03/24 04:41:46;;;;;;;43.63;20.25;;;5.90;91.50;;;;;;4994836;28;20570;-75
2021/03/24 04:44:42;;;;;;;40.03;19.73;;;6.00;91.90;;;;;;4994745;28;20125;-75
2021/03/24 04:47:37;;;;;;;39.03;20.08;;;5.90;92.00;;;;;;4986061;28;20121;-75
2021/03/24 04:50:16;;;;;;;40.55;20.42;;;6.00;92.20;;;;;;4990445;28;20391;-76
2021/03/24 04:52:42;;;;;;;41.28;21.60;;;6.10;92.40;;;;;;4978502;28;20093;-75
2021/03/24 04:55:14;;;;;;;40.85;20.27;;;6.20;92.80;;;;;;4979398;28;20416;-76
2021/03/24 04:57:41;;;;;;;42.70;22.25;;;6.30;92.60;;;;;;4979190;28;20034;-76
2021/03/24 05:00:47;;;;;;;44.70;22.08;;;6.40;92.60;;;;;;4993936;28;20066;-76
2021/03/24 05:03:17;;;;;;;38.80;19.85;;;6.40;92.50;;;;;;4978463;28;20127;-76
2021/03/24 05:05:55;;;;;;;37.63;19.77;;;6.30;92.40;;;;;;4977678;28;20049;-76
2021/03/24 05:08:34;;;;;;;38.45;18.88;;;6.30;92.50;;;;;;4993958;28;20031;-76
2021/03/24 05:11:12;;;;;;;41.22;20.65;;;6.30;92.30;;;;;;4979193;28;20125;-76
2021/03/24 05:14:01;;;;;;;40.60;19.60;;;6.20;92.20;;;;;;4994602;28;20037;-75
2021/03/24 05:16:38;;;;;;;40.50;19.65;;;6.20;92.40;;;;;;4974463;28;20377;-75
2021/03/24 05:19:04;;;;;;;37.10;19.33;;;6.20;92.50;;;;;;4977891;28;20035;-75
2021/03/24 05:21:36;;;;;;;39.40;19.45;;;6.20;92.30;;;;;;4994670;28;20043;-75
2021/03/24 05:24:05;;;;;;;36.80;19.92;;;6.10;92.10;;;;;;4978050;28;20097;-75
2021/03/24 05:26:39;;;;;;;37.22;19.30;;;6.10;92.10;;;;;;4979138;28;20039;-75
2021/03/24 05:29:11;;;;;;;38.92;19.40;;;6.00;91.90;;;;;;4978065;28;20074;-77
2021/03/24 05:31:42;;;;;;;39.60;20.58;;;5.90;92.00;;;;;;4978842;28;20042;-75
2021/03/24 05:34:16;;;;;;;36.92;19.80;;;5.80;92.30;;;;;;4978441;28;20039;-75
2021/03/24 05:36:48;;;;;;;38.88;19.13;;;5.80;92.20;;;;;;4994278;28;20043;-75
2021/03/24 05:39:26;;;;;;;37.42;18.95;;;5.80;92.30;;;;;;4979252;28;20047;-75
2021/03/24 05:42:35;;;;;;;37.72;18.65;;;5.80;92.20;;;;;;4997795;28;20045;-75
2021/03/24 05:45:07;;;;;;;41.13;20.05;;;5.80;92.10;;;;;;4980268;28;20062;-75
2021/03/24 05:47:46;;;;;;;37.03;19.98;;;5.80;92.10;;;;;;4996852;28;20038;-75
2021/03/24 05:50:46;;;;;;;39.55;22.15;;;5.70;92.00;;;;;;4996039;28;20049;-75
2021/03/24 05:53:28;;;;;;;41.17;19.83;;;5.90;92.50;;;;;;4997842;28;20038;-76
2021/03/24 05:56:04;;;;;;;42.88;21.42;;;5.80;92.30;;;;;;4997279;28;20034;-75
2021/03/24 05:58:38;;;;;;;46.63;22.52;;;5.80;92.40;;;;;;4995782;28;20080;-75
2021/03/24 06:01:46;;;;;;;47.67;22.35;;;5.80;92.80;;;;;;4995788;28;20121;-75
2021/03/24 06:04:44;;;;;;;42.13;22.55;;;5.80;92.60;;;;;;4952825;28;20035;-75
2021/03/24 06:07:37;;;;;;;46.05;22.67;;;5.80;92.50;;;;;;4979494;28;20038;-75
2021/03/24 06:10:42;;;;;;;43.17;22.60;;;5.70;92.60;;;;;;4979205;28;20096;-75
2021/03/24 06:13:46;;;;;;;48.17;23.50;;;5.70;92.40;;;;;;4995602;28;20038;-75
2021/03/24 06:16:31;;;;;;;48.40;23.45;;;5.70;92.70;;;;;;4979118;28;20042;-75
2021/03/24 06:19:22;;;;;;;40.60;22.65;;;5.70;92.70;;;;;;4995906;28;20070;-75
2021/03/24 06:22:23;;;;;;;42.45;20.30;;;5.70;92.70;;;;;;4996732;28;20407;-75
2021/03/24 06:24:48;;;;;;;46.92;22.30;;;5.70;92.40;;;;;;4984691;28;20035;-75
2021/03/24 06:27:29;;;;;;;39.08;20.38;;;5.80;92.40;;;;;;4995661;28;20038;-75
2021/03/24 06:30:01;;;;;;;39.33;21.27;;;5.80;92.40;;;;;;4996666;28;20038;-77
2021/03/24 06:33:04;;;;;;;43.72;21.90;;;5.80;92.30;;;;;;4995574;28;20077;-76
2021/03/24 06:35:46;;;;;;;41.20;21.23;;;5.80;92.40;;;;;;4979708;28;20487;-76
2021/03/24 06:38:34;;;;;;;35.63;20.15;;;5.90;92.40;;;;;;4996908;28;20141;-75
2021/03/24 06:41:37;;;;;;;45.35;21.45;;;6.00;92.50;;;;;;4996673;28;20112;-75
2021/03/24 06:44:30;;;;;;;39.78;20.38;;;6.00;92.40;;;;;;4978879;28;20038;-74
2021/03/24 06:47:03;;;;;;;46.05;21.52;;;6.10;92.10;;;;;;4996779;28;20049;-74
2021/03/24 06:49:49;;;;;;;68.75;24.05;;;6.10;92.20;;;;;;4996839;28;20046;-74
2021/03/24 06:52:46;;;;;;;52.92;23.60;;;6.20;92.10;;;;;;4996401;28;20518;-75
2021/03/24 06:55:21;;;;;;;49.85;21.42;;;6.30;92.00;;;;;;4996378;28;20042;-74
2021/03/24 06:57:59;;;;;;;41.78;20.85;;;6.40;91.90;;;;;;4979053;28;20449;-74
2021/03/24 07:01:12;;;;;;;39.13;20.65;;;6.40;91.80;;;;;;4978311;28;20038;-75
2021/03/24 07:03:57;;;;;;;37.13;19.38;;;6.50;91.70;;;;;;4978412;28;20399;-75
2021/03/24 07:06:38;;;;;;;46.70;23.02;;;6.60;91.40;;;;;;4979430;28;20372;-75
2021/03/24 07:09:23;;;;;;;41.53;20.00;;;6.80;91.80;;;;;;4996192;28;20134;-76
2021/03/24 07:12:09;;;;;;;39.45;20.23;;;6.90;91.70;;;;;;4978879;28;20049;-76
2021/03/24 07:15:19;;;;;;;39.95;19.75;;;7.00;91.10;;;;;;4996038;28;20042;-75
2021/03/24 07:18:22;;;;;;;34.15;20.02;;;7.20;91.10;;;;;;4983908;28;20034;-75
2021/03/24 07:21:29;;;;;;;36.10;19.48;;;7.30;91.00;;;;;;4995645;28;20051;-77
2021/03/24 07:24:08;;;;;;;40.75;18.67;;;7.50;90.70;;;;;;4978465;28;20121;-74
2021/03/24 07:26:45;;;;;;;34.58;18.80;;;7.70;90.40;;;;;;4995862;28;20046;-76
2021/03/24 07:29:38;;;;;;;35.80;18.25;;;7.80;90.20;;;;;;4978331;28;20100;-76
2021/03/24 07:32:11;;;;;;;38.72;18.85;;;8.00;90.20;;;;;;4995920;28;20042;-75
2021/03/24 07:34:46;;;;;;;37.58;18.77;;;8.10;89.80;;;;;;4996051;28;20050;-75
2021/03/24 07:37:32;;;;;;;32.05;17.30;;;8.20;89.20;;;;;;4978184;28;20050;-75
2021/03/24 07:40:21;;;;;;;34.00;17.10;;;8.40;88.40;;;;;;4994678;28;20050;-75
2021/03/24 07:43:12;;;;;;;40.85;18.05;;;8.60;87.30;;;;;;4995336;28;20038;-75
2021/03/24 07:46:19;;;;;;;33.15;16.63;;;8.70;86.30;;;;;;4995051;28;20038;-75
2021/03/24 07:49:04;;;;;;;41.17;18.10;;;8.80;85.60;;;;;;4948824;28;20038;-75
2021/03/24 07:51:52;;;;;;;29.10;16.10;;;9.10;85.10;;;;;;4995393;28;20034;-76
2021/03/24 07:54:46;;;;;;;35.97;17.13;;;9.20;84.50;;;;;;4994660;28;20510;-75
2021/03/24 07:57:33;;;;;;;41.00;17.70;;;9.40;83.80;;;;;;4994063;28;20066;-75
2021/03/24 08:00:14;;;;;;;30.17;16.02;;;9.60;83.70;;;;;;4977382;28;20058;-75
2021/03/24 08:03:06;;;;;;;41.75;17.33;;;9.70;83.40;;;;;;4995511;28;20061;-75
2021/03/24 08:06:02;;;;;;;33.15;17.23;;;9.90;82.50;;;;;;4994718;28;20062;-75
2021/03/24 08:08:36;;;;;;;27.35;15.55;;;9.90;82.80;;;;;;4977404;28;20034;-75
2021/03/24 08:11:26;;;;;;;30.90;15.95;;;10.20;82.40;;;;;;4977371;28;20497;-75
2021/03/24 08:14:04;;;;;;;27.60;15.07;;;10.30;82.00;;;;;;4994913;28;20073;-75
2021/03/24 08:16:58;;;;;;;32.03;15.68;;;10.30;81.90;;;;;;4977934;28;20096;-75
2021/03/24 08:19:52;;;;;;;30.20;13.40;;;10.40;82.40;;;;;;4994578;28;20165;-75
2021/03/24 08:22:45;;;;;;;29.90;13.50;;;10.60;81.50;;;;;;4994701;28;20052;-75
2021/03/24 08:25:42;;;;;;;32.05;14.18;;;10.70;81.60;;;;;;4977350;28;20035;-75
2021/03/24 08:28:26;;;;;;;31.25;14.15;;;10.70;81.40;;;;;;4994939;28;20061;-75
2021/03/24 08:31:20;;;;;;;30.23;13.25;;;10.70;81.80;;;;;;4976953;28;20098;-75
2021/03/24 08:33:52;;;;;;;26.48;11.35;;;10.70;82.20;;;;;;4977893;28;20384;-75
2021/03/24 08:36:55;;;;;;;26.70;11.82;;;10.80;82.40;;;;;;4994598;28;20034;-75
2021/03/24 08:39:58;;;;;;;26.45;11.20;;;10.80;82.80;;;;;;4994573;28;20043;-74
2021/03/24 08:42:33;;;;;;;25.05;10.40;;;11.00;82.00;;;;;;4994868;28;20034;-74
2021/03/24 08:45:24;;;;;;;24.48;10.70;;;11.10;81.20;;;;;;4994920;28;20034;-74
2021/03/24 08:47:55;;;;;;;24.20;10.60;;;11.10;81.40;;;;;;4995101;28;20038;-75
2021/03/24 08:50:32;;;;;;;22.55;9.70;;;11.30;80.90;;;;;;4977420;28;20200;-75
2021/03/24 08:53:21;;;;;;;22.95;10.35;;;11.30;80.80;;;;;;4977043;28;20045;-75
2021/03/24 08:55:54;;;;;;;29.38;11.73;;;11.40;81.10;;;;;;4994610;28;20046;-75
2021/03/24 08:58:32;;;;;;;21.50;10.30;;;11.40;80.50;;;;;;4995027;28;20036;-74
2021/03/24 09:01:16;;;;;;;25.63;9.45;;;11.40;80.80;;;;;;4994678;28;20038;-75
2021/03/24 09:04:07;;;;;;;26.27;10.15;;;11.70;79.50;;;;;;4994823;28;20096;-74
2021/03/24 09:06:44;;;;;;;27.48;9.15;;;11.90;78.50;;;;;;4994710;28;20042;-75
2021/03/24 09:09:41;;;;;;;24.27;10.13;;;12.20;77.10;;;;;;4994724;28;20042;-76
2021/03/24 09:12:31;;;;;;;32.00;10.63;;;12.10;75.70;;;;;;4995031;28;20041;-75
2021/03/24 09:15:12;;;;;;;18.23;9.98;;;12.10;76.10;;;;;;4994870;28;20038;-75
2021/03/24 09:17:51;;;;;;;23.58;10.38;;;12.30;76.00;;;;;;4998321;28;20065;-75
2021/03/24 09:20:54;;;;;;;22.95;9.98;;;12.50;75.60;;;;;;4998146;28;20074;-75
2021/03/24 09:23:32;;;;;;;21.67;9.23;;;12.50;73.60;;;;;;4998579;28;20062;-75
2021/03/24 09:26:12;;;;;;;26.95;9.95;;;12.40;74.10;;;;;;4997904;28;20042;-75
2021/03/24 09:29:05;;;;;;;28.55;10.73;;;12.50;75.60;;;;;;4997857;28;20176;-76
2021/03/24 09:31:39;;;;;;;26.02;10.00;;;12.40;76.00;;;;;;4998316;28;20042;-76
2021/03/24 09:34:23;;;;;;;;;;;12.60;74.60;;;;;;4998213;28;20030;-75
2021/03/24 09:36:56;;;;;;;20.27;9.68;;;12.60;74.90;;;;;;4997484;28;19914;-75
2021/03/24 09:39:28;;;;;;;22.88;10.43;;;12.80;74.00;;;;;;4997559;28;20054;-76
2021/03/24 09:42:08;;;;;;;23.65;9.88;;;12.90;74.10;;;;;;4997446;28;20116;-76
2021/03/24 09:44:52;;;;;;;22.80;9.60;;;13.00;73.20;;;;;;4997554;28;20499;-75
2021/03/24 09:47:50;;;;;;;23.65;10.00;;;13.10;72.70;;;;;;4997245;28;20034;-76
2021/03/24 09:50:19;;;;;;;22.92;9.85;;;13.20;72.50;;;;;;4980050;28;20049;-76
2021/03/24 09:52:52;;;;;;;25.88;11.02;;;13.10;72.20;;;;;;4997089;28;20039;-76
2021/03/24 09:55:23;;;;;;;23.65;10.02;;;13.10;72.30;;;;;;4996779;28;20364;-76
2021/03/24 09:58:08;;;;;;;25.63;10.30;;;13.10;73.00;;;;;;4997131;28;20464;-75
2021/03/24 10:00:41;;;;;;;27.42;10.52;;;13.10;72.30;;;;;;4979127;28;20046;-75
2021/03/24 10:03:26;;;;;;;26.60;10.73;;;13.10;72.30;;;;;;4997130;28;20049;-76
2021/03/24 10:05:58;;;;;;;18.67;10.48;;;13.00;72.20;;;;;;4979540;28;20490;-76
2021/03/24 10:08:50;;;;;;;27.65;10.55;;;12.90;73.20;;;;;;4996903;28;20049;-75
2021/03/24 10:11:25;;;;;;;22.60;9.90;;;12.90;72.80;;;;;;4979473;28;20556;-75
2021/03/24 10:13:56;;;;;;;23.42;10.07;;;12.80;73.50;;;;;;4996631;28;20058;-75
2021/03/24 10:16:34;;;;;;;20.58;9.82;;;12.80;73.30;;;;;;4978967;28;20418;-75
2021/03/24 10:19:15;;;;;;;22.45;10.20;;;12.80;73.20;;;;;;4997043;28;20045;-75
2021/03/24 10:21:52;;;;;;;19.00;9.18;;;13.00;71.80;;;;;;4996901;28;20022;-75
2021/03/24 10:24:33;;;;;;;23.63;9.82;;;13.30;70.40;;;;;;4996270;28;20369;-75
2021/03/24 10:27:09;;;;;;;22.90;9.20;;;13.40;70.50;;;;;;4996019;28;20050;-76
2021/03/24 10:29:53;;;;;;;23.08;9.55;;;13.40;68.40;;;;;;4996315;28;20141;-76
2021/03/24 10:32:34;;;;;;;23.60;8.95;;;13.70;67.90;;;;;;4996728;28;20053;-76
2021/03/24 10:35:11;;;;;;;23.63;7.25;;;13.70;68.10;;;;;;4996047;28;20169;-75
2021/03/24 10:38:24;;;;;;;20.15;7.68;;;14.00;66.10;;;;;;4996115;28;20042;-76
2021/03/24 10:41:09;;;;;;;15.77;6.88;;;13.90;65.40;;;;;;4993534;28;20137;-76
2021/03/24 10:43:42;;;;;;;18.60;7.10;;;13.70;62.10;;;;;;4996237;28;20046;-76
2021/03/24 10:46:17;;;;;;;19.40;7.22;;;13.70;64.60;;;;;;4978573;28;20491;-76
2021/03/24 10:48:50;;;;;;;19.83;7.10;;;13.60;62.70;;;;;;4996432;28;20145;-76
2021/03/24 10:51:34;;;;;;;19.10;6.65;;;13.80;64.00;;;;;;4996661;28;20054;-77
2021/03/24 10:54:27;;;;;;;21.05;7.90;;;13.90;60.70;;;;;;4996018;28;20132;-76
2021/03/24 10:56:59;;;;;;;17.05;6.30;;;13.90;64.00;;;;;;4995240;28;20046;-76
2021/03/24 11:00:00;;;;;;;17.67;6.70;;;13.90;62.50;;;;;;4977962;28;20121;-76
2021/03/24 11:02:53;;;;;;;14.43;6.63;;;14.00;62.30;;;;;;4994623;28;20065;-76
2021/03/24 11:05:26;;;;;;;21.83;6.85;;;14.00;61.90;;;;;;4995346;28;20038;-75
2021/03/24 11:08:02;;;;;;;16.65;6.68;;;14.00;60.70;;;;;;4995597;28;20038;-75
2021/03/24 11:10:53;;;;;;;14.95;6.32;;;14.00;58.50;;;;;;4995492;28;20050;-75
2021/03/24 11:13:42;;;;;;;19.50;6.90;;;14.20;61.30;;;;;;4995636;28;20096;-75
2021/03/24 11:16:38;;;;;;;18.67;7.50;;;14.10;62.20;;;;;;4995440;28;20070;-76
2021/03/24 11:19:31;;;;;;;18.48;6.00;;;14.10;61.50;;;;;;4977436;28;20410;-75
2021/03/24 11:22:04;;;;;;;20.70;7.38;;;14.40;61.20;;;;;;4995853;28;20038;-75
2021/03/24 11:24:53;;;;;;;20.95;7.25;;;14.40;61.20;;;;;;4995462;28;20042;-75
2021/03/24 11:27:40;;;;;;;16.13;6.43;;;14.60;60.00;;;;;;4984456;28;20117;-76
2021/03/24 11:30:25;;;;;;;17.33;6.57;;;14.60;59.10;;;;;;4994478;28;20042;-77
2021/03/24 11:32:56;;;;;;;;;;;14.50;60.20;;;;;;4995865;28;20157;-76
2021/03/24 11:36:16;;;;;;;16.15;7.13;;;14.50;60.50;;;;;;4977487;28;20267;-76
2021/03/24 11:38:48;;;;;;;18.35;6.00;;;14.30;61.70;;;;;;4973062;28;20038;-76
2021/03/24 11:41:26;;;;;;;17.92;6.00;;;14.10;61.70;;;;;;4991392;28;20546;-76
2021/03/24 11:44:03;;;;;;;19.33;5.90;;;14.30;59.00;;;;;;4994936;28;20030;-77
2021/03/24 11:46:41;;;;;;;17.40;5.80;;;14.40;57.80;;;;;;4994926;28;20046;-77
2021/03/24 11:49:28;;;;;;;14.80;5.68;;;14.50;57.70;;;;;;4994511;28;20475;-75
2021/03/24 11:52:05;;;;;;;15.80;5.60;;;14.80;56.80;;;;;;4994429;28;20130;-75
2021/03/24 11:54:37;;;;;;;17.13;5.45;;;14.80;55.60;;;;;;4994577;28;20042;-75
2021/03/24 11:57:22;;;;;;;17.35;6.55;;;15.00;56.00;;;;;;4977028;28;20056;-75
2021/03/24 12:00:08;;;;;;;16.45;6.45;;;15.10;57.00;;;;;;4994718;28;20054;-76
2021/03/24 12:02:59;;;;;;;19.02;7.55;;;15.10;57.10;;;;;;4994450;28;20129;-75
2021/03/24 12:05:45;;;;;;;21.08;6.38;;;15.10;57.50;;;;;;4994414;28;20112;-76
2021/03/24 12:08:32;;;;;;;14.95;7.55;;;15.10;57.70;;;;;;4994786;28;20133;-76
2021/03/24 12:11:09;;;;;;;16.55;6.60;;;15.30;59.40;;;;;;4994588;28;20061;-76
2021/03/24 12:13:36;;;;;;;19.10;6.72;;;15.10;59.20;;;;;;4994996;28;20137;-76
2021/03/24 12:16:07;;;;;;;17.20;6.88;;;15.10;58.40;;;;;;4994348;28;20046;-76
2021/03/24 12:18:54;;;;;;;20.77;6.88;;;15.00;62.30;;;;;;4976967;28;20204;-74
2021/03/24 12:21:34;;;;;;;23.60;7.63;;;15.00;60.30;;;;;;4994547;28;20038;-75
2021/03/24 12:24:22;;;;;;;20.05;8.05;;;15.00;63.70;;;;;;4994197;28;20491;-75
2021/03/24 12:26:48;;;;;;;21.25;7.00;;;15.20;62.70;;;;;;4995298;28;20049;-75
2021/03/24 12:29:25;;;;;;;14.48;6.53;;;15.30;63.00;;;;;;4994527;28;20042;-75
2021/03/24 12:32:00;;;;;;;17.10;6.90;;;15.50;62.30;;;;;;4976799;28;20049;-75
2021/03/24 12:34:29;;;;;;;20.73;6.65;;;15.30;63.80;;;;;;4994593;28;20046;-75
2021/03/24 12:37:01;;;;;;;19.48;7.07;;;15.40;63.90;;;;;;4994686;28;20073;-75
2021/03/24 12:39:40;;;;;;;20.23;6.60;;;15.40;63.90;;;;;;4994338;28;20046;-75
2021/03/24 12:42:21;;;;;;;17.85;6.78;;;15.50;63.50;;;;;;4994709;28;20038;-75
2021/03/24 12:44:47;;;;;;;21.52;6.88;;;15.50;63.60;;;;;;4994620;28;20039;-76
2021/03/24 12:47:27;;;;;;;19.25;7.05;;;15.50;63.00;;;;;;4994506;28;20053;-76
2021/03/24 12:50:08;;;;;;;23.92;8.23;;;15.50;64.00;;;;;;4994580;28;20120;-76
2021/03/24 12:52:56;;;;;;;18.05;7.50;;;15.40;64.40;;;;;;4997741;28;20077;-76
2021/03/24 12:55:22;;;;;;;18.13;7.45;;;15.60;63.70;;;;;;4980852;28;20034;-76
2021/03/24 12:58:06;;;;;;;17.52;7.90;;;15.60;64.40;;;;;;4998378;28;20127;-76
2021/03/24 13:00:51;;;;;;;16.90;7.40;;;15.60;64.50;;;;;;4997725;28;20077;-76
2021/03/24 13:03:44;;;;;;;22.45;7.47;;;15.70;63.50;;;;;;4998007;28;20038;-76
2021/03/24 13:06:38;;;;;;;18.33;7.40;;;15.80;63.60;;;;;;4998496;28;20038;-75
2021/03/24 13:09:38;;;;;;;18.80;7.07;;;15.80;63.00;;;;;;4997756;28;20042;-75
2021/03/24 13:12:16;;;;;;;34.47;18.77;;;16.00;62.90;;;;;;4998361;28;20124;-75
2021/03/24 13:14:53;;;;;;;18.02;7.68;;;15.80;63.80;;;;;;4998245;28;20064;-75
2021/03/24 13:17:44;;;;;;;17.52;7.47;;;15.70;63.70;;;;;;4998366;28;20093;-75
2021/03/24 13:20:42;;;;;;;20.50;7.50;;;15.60;64.80;;;;;;5013202;28;20076;-76
2021/03/24 13:23:45;;;;;;;22.80;8.20;;;15.50;64.50;;;;;;4995100;28;20034;-76
2021/03/24 13:26:20;;;;;;;18.05;6.85;;;15.30;66.10;;;;;;4997968;28;20062;-76
2021/03/24 13:28:56;;;;;;;21.08;7.47;;;15.30;66.70;;;;;;4997509;28;20062;-76
2021/03/24 13:32:03;;;;;;;18.00;7.93;;;15.20;66.80;;;;;;4979863;28;20038;-76
2021/03/24 13:34:47;;;;;;;21.88;7.13;;;15.30;66.10;;;;;;4975529;28;20614;-75